メインページ
METAR-TAF:

METAR-TAF

空港 :

Val-d'Or, ケベック州, カナダ

緯度: 48-04N, 経度: 077-47W, 海抜: 337m

現時点の気象観測

当レポートは42分前の06:00(UTC)に作成
北西の風 6kt
気温 1°C
湿度 93%
気圧 1017 hPa
視程: 14.5km
晴天

METAR: CYVO 040600Z AUTO 31006KT 9SM CLR 01/00 A3004 RMK SLP192

時間: 02:42 (06:42 UTC)

予報

当レポートは1時間2分前の05:40(UTC)に作成
予報は04日の 06時(UTC)から 04日の 18時(UTC)まで有効
変向風 3kt
視程: 10km
晴天
04日の 06時(UTC)から 04日の 07時(UTC)まで一時的に
視程: 3.2km
高度300ftの雲は散在している
04日の 0700時(UTC)から
変向風 3kt
視程: 9.7km
高度300ftの雲は散在している
04日の 07時(UTC)から 04日の 14時(UTC)まで一時的に
視程: 1.6km
高度300ftの千切れ雲あり
04日の 1400時(UTC)から
南/南西の風 5kt
視程: 10km
高度2500ftの雲は散在している

TAF: CYVO 040540Z 0406/0418 VRB03KT P6SM SKC TEMPO 0406/0407 2SM BR SCT003 FM040700 VRB03KT 6SM BR SCT003 TEMPO 0407/0414 1SM BR BKN003 FM041400 21005KT P6SM SCT025 RMK FCST BASED ON AUTO OBS. NXT FCST BY 041200Z

4,000以上の空港の気象観測と天気予報(METAR報とTAF報)

利用可能な観測所は地図上に黄色い丸と赤い丸で示す。

丸の上にカーソルを重ねると観測所名を参照できる。

次にクリックすると気象観測と天気予報を参照できる。

マップの切り替え:黒色「×」印の緑ボタンをクリックして拡大、「-」印の緑ボタンをクリックして縮小、緑色の三角印をクリックして隣りの地図に切り替え


METAR-TAF: